CSZ4602 ZSOF-ZSAM
Flight info
| Callsign | CSZ4602 |
|---|---|
| Flight time | N/A |
| Altitude | 36100 |
| Route | MAD01D MADUK R343 UPLEL W95 SAPIN A470 LJG |
| Aircraft | A20N/M-SDE2E3FGHIRWXY/LB1 |
Departure
| Time | N/A |
|---|---|
| Airport | Hefei Xinqiao International Airport (ZSOF) |
Arrival
| Time | 2026-05-05 09:50 |
|---|---|
| Airport | Xiamen Gaoqi International Airport (ZSAM) |
| Time | Latitude | Longitude | Altitude | Speed | Heading |
|---|---|---|---|---|---|
| 2026-05-05 09:24 | 26.09753 | 119.46079 | 36169 ft | 446 kts | 212° |
| 2026-05-05 09:24 | 26.03733 | 119.41696 | 36158 ft | 447 kts | 212° |
| 2026-05-05 09:24 | 26.01124 | 119.39806 | 35903 ft | 446 kts | 212° |
| 2026-05-05 09:25 | 25.98549 | 119.37946 | 35654 ft | 444 kts | 212° |
| 2026-05-05 09:25 | 25.95982 | 119.36095 | 35404 ft | 441 kts | 212° |
| 2026-05-05 09:25 | 25.93411 | 119.34241 | 35153 ft | 439 kts | 212° |
| 2026-05-05 09:25 | 25.90914 | 119.32431 | 34907 ft | 438 kts | 212° |
| 2026-05-05 09:26 | 25.88384 | 119.30601 | 34660 ft | 438 kts | 212° |
| 2026-05-05 09:26 | 25.85873 | 119.28797 | 34414 ft | 438 kts | 212° |
| 2026-05-05 09:26 | 25.83314 | 119.26962 | 34164 ft | 438 kts | 212° |
| 2026-05-05 09:26 | 25.80795 | 119.25156 | 33918 ft | 439 kts | 212° |
| 2026-05-05 09:27 | 25.78231 | 119.23320 | 33592 ft | 440 kts | 212° |
| 2026-05-05 09:27 | 25.75785 | 119.21567 | 33120 ft | 441 kts | 212° |
| 2026-05-05 09:27 | 25.73216 | 119.19727 | 32490 ft | 442 kts | 212° |
| 2026-05-05 09:27 | 25.70636 | 119.17878 | 31791 ft | 442 kts | 212° |
| 2026-05-05 09:28 | 25.68082 | 119.16050 | 31054 ft | 443 kts | 211° |
| 2026-05-05 09:28 | 25.65472 | 119.14181 | 30272 ft | 445 kts | 211° |
| 2026-05-05 09:28 | 25.62899 | 119.12341 | 29483 ft | 447 kts | 211° |
| 2026-05-05 09:28 | 25.60306 | 119.10488 | 28673 ft | 448 kts | 211° |
| 2026-05-05 09:29 | 25.57701 | 119.08627 | 28139 ft | 443 kts | 211° |
| 2026-05-05 09:29 | 25.55138 | 119.06796 | 27649 ft | 437 kts | 211° |
| 2026-05-05 09:29 | 25.52579 | 119.04971 | 27150 ft | 433 kts | 211° |
| 2026-05-05 09:29 | 25.50085 | 119.03193 | 26651 ft | 429 kts | 211° |
| 2026-05-05 09:30 | 25.47598 | 119.01420 | 26131 ft | 425 kts | 211° |
| 2026-05-05 09:30 | 25.45111 | 118.99649 | 25578 ft | 423 kts | 211° |
| 2026-05-05 09:30 | 25.42666 | 118.97910 | 25024 ft | 421 kts | 211° |
| 2026-05-05 09:30 | 25.40232 | 118.96178 | 24465 ft | 420 kts | 211° |
| 2026-05-05 09:31 | 25.37784 | 118.94437 | 23904 ft | 418 kts | 211° |
| 2026-05-05 09:31 | 25.36160 | 118.93203 | 23521 ft | 418 kts | 214° |
| 2026-05-05 09:31 | 25.33191 | 118.90514 | 22783 ft | 417 kts | 221° |
| 2026-05-05 09:31 | 25.31787 | 118.88998 | 22409 ft | 417 kts | 225° |
| 2026-05-05 09:32 | 25.29192 | 118.85897 | 21690 ft | 415 kts | 227° |
| 2026-05-05 09:32 | 25.27893 | 118.84312 | 21331 ft | 413 kts | 227° |
| 2026-05-05 09:32 | 25.25987 | 118.81987 | 20810 ft | 411 kts | 227° |
| 2026-05-05 09:32 | 25.23423 | 118.78870 | 20129 ft | 407 kts | 227° |
| 2026-05-05 09:33 | 25.21525 | 118.76569 | 19627 ft | 405 kts | 227° |
| 2026-05-05 09:33 | 25.19655 | 118.74307 | 19133 ft | 402 kts | 227° |
| 2026-05-05 09:33 | 25.17771 | 118.72030 | 18632 ft | 399 kts | 227° |
| 2026-05-05 09:33 | 25.15909 | 118.69783 | 18137 ft | 397 kts | 227° |
| 2026-05-05 09:34 | 25.14052 | 118.67545 | 17643 ft | 394 kts | 227° |
| 2026-05-05 09:34 | 25.12816 | 118.66056 | 17313 ft | 393 kts | 227° |
| 2026-05-05 09:34 | 25.10384 | 118.63126 | 16660 ft | 389 kts | 227° |
| 2026-05-05 09:34 | 25.08537 | 118.60919 | 16160 ft | 387 kts | 226° |
| 2026-05-05 09:35 | 25.06706 | 118.58801 | 15667 ft | 385 kts | 226° |
| 2026-05-05 09:35 | 25.03000 | 118.54564 | 14670 ft | 381 kts | 226° |
| 2026-05-05 09:35 | 25.01171 | 118.52473 | 14174 ft | 380 kts | 226° |
| 2026-05-05 09:36 | 24.99344 | 118.50382 | 13676 ft | 378 kts | 226° |
| 2026-05-05 09:36 | 24.97535 | 118.48312 | 13187 ft | 376 kts | 226° |
| 2026-05-05 09:36 | 24.95724 | 118.46238 | 12700 ft | 374 kts | 226° |
| 2026-05-05 09:36 | 24.93936 | 118.44192 | 12220 ft | 372 kts | 226° |
| 2026-05-05 09:37 | 24.92745 | 118.42828 | 11900 ft | 370 kts | 226° |
| 2026-05-05 09:37 | 24.90365 | 118.40102 | 11272 ft | 367 kts | 226° |
| 2026-05-05 09:37 | 24.89188 | 118.38758 | 10963 ft | 365 kts | 226° |
| 2026-05-05 09:37 | 24.86851 | 118.36106 | 10378 ft | 360 kts | 226° |
| 2026-05-05 09:38 | 24.85142 | 118.34163 | 10264 ft | 345 kts | 226° |
| 2026-05-05 09:38 | 24.83536 | 118.32324 | 10171 ft | 331 kts | 226° |
| 2026-05-05 09:38 | 24.81969 | 118.30529 | 10085 ft | 317 kts | 226° |
| 2026-05-05 09:38 | 24.80965 | 118.29378 | 10036 ft | 308 kts | 226° |
| 2026-05-05 09:39 | 24.79057 | 118.27196 | 9869 ft | 294 kts | 226° |
| 2026-05-05 09:39 | 24.78118 | 118.26124 | 9631 ft | 294 kts | 226° |
| 2026-05-05 09:39 | 24.76240 | 118.23980 | 9200 ft | 291 kts | 226° |
| 2026-05-05 09:39 | 24.74846 | 118.22392 | 8888 ft | 288 kts | 226° |
| 2026-05-05 09:40 | 24.73935 | 118.21355 | 8685 ft | 287 kts | 226° |
| 2026-05-05 09:40 | 24.72089 | 118.19251 | 8276 ft | 284 kts | 225° |
| 2026-05-05 09:40 | 24.71182 | 118.18218 | 8077 ft | 282 kts | 225° |
| 2026-05-05 09:40 | 24.69371 | 118.16155 | 7683 ft | 279 kts | 225° |
| 2026-05-05 09:41 | 24.68048 | 118.14651 | 7391 ft | 277 kts | 225° |
| 2026-05-05 09:41 | 24.66715 | 118.13134 | 7099 ft | 274 kts | 225° |
| 2026-05-05 09:41 | 24.65414 | 118.11656 | 6813 ft | 272 kts | 225° |
| 2026-05-05 09:41 | 24.64093 | 118.10154 | 6523 ft | 270 kts | 225° |
| 2026-05-05 09:42 | 24.62809 | 118.08700 | 6238 ft | 269 kts | 225° |
| 2026-05-05 09:42 | 24.61526 | 118.07240 | 5968 ft | 266 kts | 225° |
| 2026-05-05 09:42 | 24.60271 | 118.05816 | 5907 ft | 253 kts | 225° |
| 2026-05-05 09:42 | 24.59062 | 118.04443 | 5900 ft | 244 kts | 225° |
| 2026-05-05 09:43 | 24.57910 | 118.03133 | 5900 ft | 244 kts | 225° |
| 2026-05-05 09:43 | 24.56689 | 118.01820 | 5760 ft | 246 kts | 217° |
| 2026-05-05 09:43 | 24.55254 | 118.00841 | 5408 ft | 246 kts | 204° |
| 2026-05-05 09:43 | 24.54211 | 118.00308 | 5188 ft | 245 kts | 202° |
| 2026-05-05 09:44 | 24.52130 | 117.99320 | 4771 ft | 244 kts | 202° |
| 2026-05-05 09:44 | 24.51093 | 117.98826 | 4566 ft | 244 kts | 202° |
| 2026-05-05 09:44 | 24.49035 | 117.97829 | 4163 ft | 242 kts | 202° |
| 2026-05-05 09:44 | 24.47496 | 117.97074 | 3857 ft | 241 kts | 202° |
| 2026-05-05 09:45 | 24.46496 | 117.96580 | 3662 ft | 241 kts | 202° |
| 2026-05-05 09:45 | 24.44975 | 117.95827 | 3361 ft | 239 kts | 202° |
| 2026-05-05 09:45 | 24.42942 | 117.94825 | 3022 ft | 235 kts | 200° |
| 2026-05-05 09:45 | 24.41410 | 117.94526 | 2980 ft | 224 kts | 166° |
| 2026-05-05 09:46 | 24.40091 | 117.95335 | 2983 ft | 221 kts | 126° |
| 2026-05-05 09:46 | 24.39582 | 117.96882 | 2990 ft | 220 kts | 86° |
| 2026-05-05 09:46 | 24.40129 | 117.98418 | 2992 ft | 223 kts | 47° |
| 2026-05-05 09:46 | 24.41319 | 117.99483 | 3001 ft | 222 kts | 35° |
| 2026-05-05 09:47 | 24.42640 | 118.00417 | 2888 ft | 223 kts | 33° |
| 2026-05-05 09:47 | 24.43942 | 118.01305 | 2627 ft | 223 kts | 33° |
| 2026-05-05 09:47 | 24.45276 | 118.02209 | 2334 ft | 223 kts | 33° |
| 2026-05-05 09:47 | 24.46572 | 118.03086 | 2067 ft | 221 kts | 33° |
| 2026-05-05 09:48 | 24.47817 | 118.04014 | 1797 ft | 217 kts | 40° |
| 2026-05-05 09:48 | 24.48876 | 118.05109 | 1526 ft | 204 kts | 48° |
| 2026-05-05 09:48 | 24.49768 | 118.06237 | 1353 ft | 189 kts | 52° |
| 2026-05-05 09:48 | 24.50305 | 118.06985 | 1156 ft | 183 kts | 54° |
| 2026-05-05 09:49 | 24.51290 | 118.08390 | 832 ft | 168 kts | 53° |
| 2026-05-05 09:49 | 24.51980 | 118.09354 | 591 ft | 154 kts | 52° |
| 2026-05-05 09:49 | 24.52587 | 118.10201 | 381 ft | 140 kts | 53° |
| 2026-05-05 09:49 | 24.53160 | 118.10998 | 210 ft | 136 kts | 53° |
| 2026-05-05 09:50 | 24.53735 | 118.11797 | 70 ft | 136 kts | 55° |
| 2026-05-05 09:50 | 24.54228 | 118.12506 | 68 ft | 94 kts | 52° |
| 2026-05-05 09:50 | 24.54452 | 118.12810 | 68 ft | 61 kts | 58° |
| 2026-05-05 09:50 | 24.54533 | 118.13077 | 68 ft | 11 kts | 76° |
| 2026-05-05 09:51 | 24.54535 | 118.13088 | 68 ft | 0 kts | 82° |
| 2026-05-05 09:51 | 24.54535 | 118.13100 | 68 ft | 1 kts | 92° |
| 2026-05-05 09:51 | 24.54533 | 118.13112 | 68 ft | 0 kts | 103° |
| 2026-05-05 09:52 | 24.54532 | 118.13118 | 68 ft | 1 kts | 105° |
| 2026-05-05 09:52 | 24.54517 | 118.13139 | 68 ft | 7 kts | 149° |
| 2026-05-05 09:52 | 24.54463 | 118.13124 | 68 ft | 9 kts | 223° |
| 2026-05-05 09:52 | 24.54420 | 118.13066 | 68 ft | 10 kts | 232° |
| 2026-05-05 09:53 | 24.54376 | 118.13001 | 68 ft | 11 kts | 233° |
| 2026-05-05 09:53 | 24.54326 | 118.12930 | 68 ft | 11 kts | 231° |
| 2026-05-05 09:53 | 24.54291 | 118.12882 | 68 ft | 12 kts | 232° |
| 2026-05-05 09:53 | 24.54210 | 118.12796 | 68 ft | 11 kts | 182° |
| 2026-05-05 09:54 | 24.54139 | 118.12843 | 68 ft | 12 kts | 146° |
| 2026-05-05 09:54 | 24.54085 | 118.12844 | 68 ft | 12 kts | 207° |
| 2026-05-05 09:54 | 24.54011 | 118.12848 | 68 ft | 7 kts | 146° |
| 2026-05-05 09:54 | 24.53989 | 118.12867 | 68 ft | 0 kts | 142° |